Grandview, Ohio
Current Conditions -  °F | °C
As of 9:53 AM on Thursday 30 Oct 2014 (Local Time) from KOSU Reporting Station
Clear Clear  
Wind Chill: 42°   Ceiling: Unl
Heat Index: 45°   Visibility: 10mi
Dew Point: 37°   Wind: 6mph
Humidity: 74%   Direction: 10°N
Pressure: 30.15"   Gusts: NA
Location:  39.987°N, 83.0425°W
Report Text: KOSU 301353Z 01005KT 10SM CLR 07/03 A3015 RMK AO2 SLP213 T00720028
Loading
Personal Weather Stations






























Interactive Weather Map
Tropical Storm Tracking
New forecast layout! Learn more

10-Day Weather Forecast

Advertisements
Track Severe Weather on mobile